sensor_id;sensor_type;location;lat;lon;timestamp;P1;durP1;ratioP1;P2;durP2;ratioP2
13311;SDS011;34033;48.672;9.376;2023-01-19T00:00:34;6.57;;;4.23;;
13311;SDS011;34033;48.672;9.376;2023-01-19T00:03:00;4.37;;;3.57;;
13311;SDS011;34033;48.672;9.376;2023-01-19T00:05:25;5.17;;;3.17;;
13311;SDS011;34033;48.672;9.376;2023-01-19T00:07:50;3.77;;;3.30;;
13311;SDS011;34033;48.672;9.376;2023-01-19T00:10:16;4.43;;;3.43;;
13311;SDS011;34033;48.672;9.376;2023-01-19T00:12:41;3.53;;;3.23;;
13311;SDS011;34033;48.672;9.376;2023-01-19T00:15:07;3.30;;;3.00;;
13311;SDS011;34033;48.672;9.376;2023-01-19T00:17:33;3.87;;;3.30;;
13311;SDS011;34033;48.672;9.376;2023-01-19T00:19:58;4.07;;;3.53;;
13311;SDS011;34033;48.672;9.376;2023-01-19T00:22:23;3.70;;;3.27;;
13311;SDS011;34033;48.672;9.376;2023-01-19T00:24:49;4.67;;;3.27;;
13311;SDS011;34033;48.672;9.376;2023-01-19T00:27:14;7.27;;;3.37;;
13311;SDS011;34033;48.672;9.376;2023-01-19T00:29:40;4.63;;;3.53;;
13311;SDS011;34033;48.672;9.376;2023-01-19T00:32:05;4.23;;;3.23;;
13311;SDS011;34033;48.672;9.376;2023-01-19T00:34:30;5.77;;;3.60;;
13311;SDS011;34033;48.672;9.376;2023-01-19T00:37:03;5.33;;;3.47;;
13311;SDS011;34033;48.672;9.376;2023-01-19T00:39:31;4.67;;;3.27;;
13311;SDS011;34033;48.672;9.376;2023-01-19T00:41:57;4.47;;;3.60;;
13311;SDS011;34033;48.672;9.376;2023-01-19T00:44:40;5.37;;;3.47;;
13311;SDS011;34033;48.672;9.376;2023-01-19T00:47:06;4.87;;;3.33;;
13311;SDS011;34033;48.672;9.376;2023-01-19T00:49:31;7.23;;;3.77;;
13311;SDS011;34033;48.672;9.376;2023-01-19T00:51:56;5.03;;;3.53;;
13311;SDS011;34033;48.672;9.376;2023-01-19T00:54:22;4.17;;;3.30;;
13311;SDS011;34033;48.672;9.376;2023-01-19T00:56:47;5.30;;;3.33;;
13311;SDS011;34033;48.672;9.376;2023-01-19T00:59:12;4.00;;;3.40;;
13311;SDS011;34033;48.672;9.376;2023-01-19T01:01:38;3.53;;;3.23;;
13311;SDS011;34033;48.672;9.376;2023-01-19T01:04:03;6.67;;;3.30;;
13311;SDS011;34033;48.672;9.376;2023-01-19T01:06:29;3.87;;;3.00;;
13311;SDS011;34033;48.672;9.376;2023-01-19T01:08:54;4.03;;;3.30;;
13311;SDS011;34033;48.672;9.376;2023-01-19T01:11:19;4.80;;;3.47;;
13311;SDS011;34033;48.672;9.376;2023-01-19T01:13:45;3.97;;;3.20;;
13311;SDS011;34033;48.672;9.376;2023-01-19T01:16:10;3.50;;;2.93;;
13311;SDS011;34033;48.672;9.376;2023-01-19T01:18:35;3.90;;;3.20;;
13311;SDS011;34033;48.672;9.376;2023-01-19T01:21:01;4.30;;;3.30;;
13311;SDS011;34033;48.672;9.376;2023-01-19T01:23:27;3.93;;;3.20;;
13311;SDS011;34033;48.672;9.376;2023-01-19T01:25:53;3.70;;;3.37;;
13311;SDS011;34033;48.672;9.376;2023-01-19T01:28:18;5.10;;;3.30;;
13311;SDS011;34033;48.672;9.376;2023-01-19T01:30:43;4.70;;;3.73;;
13311;SDS011;34033;48.672;9.376;2023-01-19T01:33:09;4.43;;;3.20;;
13311;SDS011;34033;48.672;9.376;2023-01-19T01:35:35;5.83;;;3.67;;
13311;SDS011;34033;48.672;9.376;2023-01-19T01:38:01;3.50;;;3.03;;
13311;SDS011;34033;48.672;9.376;2023-01-19T01:40:26;6.90;;;3.57;;
13311;SDS011;34033;48.672;9.376;2023-01-19T01:42:52;4.07;;;3.40;;
13311;SDS011;34033;48.672;9.376;2023-01-19T01:45:34;4.37;;;3.40;;
13311;SDS011;34033;48.672;9.376;2023-01-19T01:50:36;3.97;;;3.13;;
13311;SDS011;34033;48.672;9.376;2023-01-19T01:53:25;7.07;;;3.40;;
13311;SDS011;34033;48.672;9.376;2023-01-19T01:55:52;4.03;;;3.27;;
13311;SDS011;34033;48.672;9.376;2023-01-19T01:58:18;3.40;;;2.83;;
13311;SDS011;34033;48.672;9.376;2023-01-19T02:00:43;4.40;;;3.07;;
13311;SDS011;34033;48.672;9.376;2023-01-19T02:03:27;3.67;;;3.10;;
13311;SDS011;34033;48.672;9.376;2023-01-19T02:05:54;3.83;;;3.00;;
13311;SDS011;34033;48.672;9.376;2023-01-19T02:08:25;3.40;;;2.97;;
13311;SDS011;34033;48.672;9.376;2023-01-19T02:11:13;5.60;;;3.77;;
13311;SDS011;34033;48.672;9.376;2023-01-19T02:13:59;3.73;;;3.10;;
13311;SDS011;34033;48.672;9.376;2023-01-19T02:16:24;4.03;;;3.13;;
13311;SDS011;34033;48.672;9.376;2023-01-19T02:18:49;4.43;;;3.20;;
13311;SDS011;34033;48.672;9.376;2023-01-19T02:23:53;4.10;;;2.90;;
13311;SDS011;34033;48.672;9.376;2023-01-19T02:26:21;4.67;;;3.53;;
13311;SDS011;34033;48.672;9.376;2023-01-19T02:28:51;5.03;;;3.13;;
13311;SDS011;34033;48.672;9.376;2023-01-19T02:31:21;3.50;;;3.13;;
13311;SDS011;34033;48.672;9.376;2023-01-19T02:33:47;3.83;;;3.17;;
13311;SDS011;34033;48.672;9.376;2023-01-19T02:36:13;4.67;;;3.07;;
13311;SDS011;34033;48.672;9.376;2023-01-19T02:38:42;3.50;;;2.67;;
13311;SDS011;34033;48.672;9.376;2023-01-19T02:41:11;3.57;;;3.00;;
13311;SDS011;34033;48.672;9.376;2023-01-19T02:43:42;3.30;;;2.90;;
13311;SDS011;34033;48.672;9.376;2023-01-19T02:46:09;5.30;;;3.20;;
13311;SDS011;34033;48.672;9.376;2023-01-19T02:48:35;4.37;;;3.40;;
13311;SDS011;34033;48.672;9.376;2023-01-19T02:51:01;5.43;;;3.30;;
13311;SDS011;34033;48.672;9.376;2023-01-19T02:56:20;5.30;;;3.50;;
13311;SDS011;34033;48.672;9.376;2023-01-19T03:10:17;4.33;;;3.07;;
13311;SDS011;34033;48.672;9.376;2023-01-19T03:18:58;5.20;;;3.40;;
13311;SDS011;34033;48.672;9.376;2023-01-19T03:21:29;6.60;;;3.37;;
13311;SDS011;34033;48.672;9.376;2023-01-19T03:23:59;5.87;;;3.20;;
13311;SDS011;34033;48.672;9.376;2023-01-19T03:26:27;3.77;;;3.03;;
13311;SDS011;34033;48.672;9.376;2023-01-19T03:28:56;3.90;;;2.90;;
13311;SDS011;34033;48.672;9.376;2023-01-19T03:31:26;6.10;;;3.00;;
13311;SDS011;34033;48.672;9.376;2023-01-19T03:33:56;3.40;;;3.10;;
13311;SDS011;34033;48.672;9.376;2023-01-19T03:36:30;4.90;;;3.17;;
13311;SDS011;34033;48.672;9.376;2023-01-19T03:39:00;4.67;;;2.90;;
13311;SDS011;34033;48.672;9.376;2023-01-19T03:41:28;3.20;;;2.90;;
13311;SDS011;34033;48.672;9.376;2023-01-19T03:43:58;3.13;;;2.83;;
13311;SDS011;34033;48.672;9.376;2023-01-19T03:46:24;4.10;;;3.00;;
13311;SDS011;34033;48.672;9.376;2023-01-19T03:48:51;5.07;;;2.90;;
13311;SDS011;34033;48.672;9.376;2023-01-19T03:51:16;3.50;;;3.00;;
13311;SDS011;34033;48.672;9.376;2023-01-19T03:53:43;3.13;;;2.70;;
13311;SDS011;34033;48.672;9.376;2023-01-19T03:56:13;4.67;;;3.23;;
13311;SDS011;34033;48.672;9.376;2023-01-19T03:58:42;3.70;;;3.17;;
13311;SDS011;34033;48.672;9.376;2023-01-19T04:01:08;3.50;;;3.03;;
13311;SDS011;34033;48.672;9.376;2023-01-19T04:03:33;3.50;;;2.90;;
13311;SDS011;34033;48.672;9.376;2023-01-19T04:05:59;3.50;;;2.90;;
13311;SDS011;34033;48.672;9.376;2023-01-19T04:08:24;3.20;;;2.90;;
13311;SDS011;34033;48.672;9.376;2023-01-19T04:10:50;3.87;;;3.13;;
13311;SDS011;34033;48.672;9.376;2023-01-19T04:13:15;4.30;;;3.03;;
13311;SDS011;34033;48.672;9.376;2023-01-19T04:15:40;3.23;;;2.93;;
13311;SDS011;34033;48.672;9.376;2023-01-19T04:18:05;3.57;;;3.03;;
13311;SDS011;34033;48.672;9.376;2023-01-19T04:20:31;2.97;;;2.70;;
13311;SDS011;34033;48.672;9.376;2023-01-19T04:22:58;4.40;;;3.03;;
13311;SDS011;34033;48.672;9.376;2023-01-19T04:25:24;3.73;;;2.70;;
13311;SDS011;34033;48.672;9.376;2023-01-19T04:27:50;3.87;;;3.07;;
13311;SDS011;34033;48.672;9.376;2023-01-19T04:30:16;2.90;;;2.70;;
13311;SDS011;34033;48.672;9.376;2023-01-19T04:32:42;3.83;;;3.10;;
13311;SDS011;34033;48.672;9.376;2023-01-19T04:35:08;3.00;;;2.47;;
13311;SDS011;34033;48.672;9.376;2023-01-19T04:37:33;3.27;;;2.97;;
13311;SDS011;34033;48.672;9.376;2023-01-19T04:39:59;5.03;;;3.07;;
13311;SDS011;34033;48.672;9.376;2023-01-19T04:42:24;3.33;;;2.80;;
13311;SDS011;34033;48.672;9.376;2023-01-19T04:44:51;4.30;;;3.30;;
13311;SDS011;34033;48.672;9.376;2023-01-19T04:47:17;4.70;;;3.63;;
13311;SDS011;34033;48.672;9.376;2023-01-19T04:49:43;6.10;;;3.63;;
13311;SDS011;34033;48.672;9.376;2023-01-19T04:52:09;3.37;;;3.07;;
13311;SDS011;34033;48.672;9.376;2023-01-19T04:54:34;4.50;;;3.07;;
13311;SDS011;34033;48.672;9.376;2023-01-19T04:56:59;3.67;;;2.80;;
13311;SDS011;34033;48.672;9.376;2023-01-19T04:59:24;7.10;;;2.70;;
13311;SDS011;34033;48.672;9.376;2023-01-19T05:01:50;4.77;;;3.20;;
13311;SDS011;34033;48.672;9.376;2023-01-19T05:04:15;3.37;;;2.90;;
13311;SDS011;34033;48.672;9.376;2023-01-19T05:06:41;3.73;;;3.13;;
13311;SDS011;34033;48.672;9.376;2023-01-19T05:09:06;5.10;;;3.00;;
13311;SDS011;34033;48.672;9.376;2023-01-19T05:11:33;3.43;;;2.93;;
13311;SDS011;34033;48.672;9.376;2023-01-19T05:13:59;3.20;;;2.90;;
13311;SDS011;34033;48.672;9.376;2023-01-19T05:16:24;4.00;;;2.77;;
13311;SDS011;34033;48.672;9.376;2023-01-19T05:18:49;3.23;;;2.93;;
13311;SDS011;34033;48.672;9.376;2023-01-19T05:21:15;3.70;;;2.97;;
13311;SDS011;34033;48.672;9.376;2023-01-19T05:23:40;3.37;;;2.87;;
13311;SDS011;34033;48.672;9.376;2023-01-19T05:26:05;3.27;;;2.90;;
13311;SDS011;34033;48.672;9.376;2023-01-19T05:28:31;3.50;;;2.80;;
13311;SDS011;34033;48.672;9.376;2023-01-19T05:30:57;3.40;;;3.10;;
13311;SDS011;34033;48.672;9.376;2023-01-19T05:33:22;4.13;;;3.27;;
13311;SDS011;34033;48.672;9.376;2023-01-19T05:35:49;9.90;;;4.03;;
13311;SDS011;34033;48.672;9.376;2023-01-19T05:38:18;3.70;;;3.00;;
13311;SDS011;34033;48.672;9.376;2023-01-19T05:40:44;5.20;;;3.57;;
13311;SDS011;34033;48.672;9.376;2023-01-19T05:43:09;6.47;;;3.60;;
13311;SDS011;34033;48.672;9.376;2023-01-19T05:45:35;4.60;;;3.57;;
13311;SDS011;34033;48.672;9.376;2023-01-19T05:48:02;3.90;;;3.00;;
13311;SDS011;34033;48.672;9.376;2023-01-19T05:50:28;4.40;;;3.20;;
13311;SDS011;34033;48.672;9.376;2023-01-19T05:52:54;11.90;;;5.90;;
13311;SDS011;34033;48.672;9.376;2023-01-19T05:55:19;8.53;;;5.10;;
13311;SDS011;34033;48.672;9.376;2023-01-19T05:57:45;6.37;;;4.10;;
13311;SDS011;34033;48.672;9.376;2023-01-19T06:00:10;5.73;;;2.57;;
13311;SDS011;34033;48.672;9.376;2023-01-19T06:02:36;5.23;;;3.40;;
13311;SDS011;34033;48.672;9.376;2023-01-19T06:05:01;3.33;;;3.03;;
13311;SDS011;34033;48.672;9.376;2023-01-19T06:07:28;3.17;;;2.70;;
13311;SDS011;34033;48.672;9.376;2023-01-19T06:09:54;4.47;;;3.13;;
13311;SDS011;34033;48.672;9.376;2023-01-19T06:12:19;2.87;;;2.57;;
13311;SDS011;34033;48.672;9.376;2023-01-19T06:14:45;3.27;;;2.90;;
13311;SDS011;34033;48.672;9.376;2023-01-19T06:17:10;6.40;;;3.20;;
13311;SDS011;34033;48.672;9.376;2023-01-19T06:19:35;2.70;;;2.50;;
13311;SDS011;34033;48.672;9.376;2023-01-19T06:22:01;6.03;;;2.97;;
13311;SDS011;34033;48.672;9.376;2023-01-19T06:24:26;4.27;;;3.30;;
13311;SDS011;34033;48.672;9.376;2023-01-19T06:26:52;4.43;;;2.97;;
13311;SDS011;34033;48.672;9.376;2023-01-19T06:29:18;4.30;;;3.20;;
13311;SDS011;34033;48.672;9.376;2023-01-19T06:31:44;2.93;;;2.73;;
13311;SDS011;34033;48.672;9.376;2023-01-19T06:34:09;3.00;;;2.70;;
13311;SDS011;34033;48.672;9.376;2023-01-19T06:36:35;3.97;;;3.10;;
13311;SDS011;34033;48.672;9.376;2023-01-19T06:39:00;2.97;;;2.67;;
13311;SDS011;34033;48.672;9.376;2023-01-19T06:41:30;3.43;;;3.03;;
13311;SDS011;34033;48.672;9.376;2023-01-19T06:43:57;2.90;;;2.70;;
13311;SDS011;34033;48.672;9.376;2023-01-19T06:46:22;5.73;;;3.27;;
13311;SDS011;34033;48.672;9.376;2023-01-19T06:48:48;3.77;;;3.00;;
13311;SDS011;34033;48.672;9.376;2023-01-19T06:51:13;3.27;;;2.87;;
13311;SDS011;34033;48.672;9.376;2023-01-19T06:53:38;3.50;;;2.90;;
13311;SDS011;34033;48.672;9.376;2023-01-19T06:56:04;3.27;;;2.87;;
13311;SDS011;34033;48.672;9.376;2023-01-19T06:58:30;2.53;;;2.33;;
13311;SDS011;34033;48.672;9.376;2023-01-19T07:01:02;4.37;;;2.93;;
13311;SDS011;34033;48.672;9.376;2023-01-19T07:03:29;3.63;;;2.80;;
13311;SDS011;34033;48.672;9.376;2023-01-19T07:05:55;3.33;;;2.77;;
13311;SDS011;34033;48.672;9.376;2023-01-19T07:08:21;6.70;;;3.37;;
13311;SDS011;34033;48.672;9.376;2023-01-19T07:10:47;4.00;;;2.80;;
13311;SDS011;34033;48.672;9.376;2023-01-19T07:13:13;3.33;;;2.77;;
13311;SDS011;34033;48.672;9.376;2023-01-19T07:15:38;2.60;;;2.40;;
13311;SDS011;34033;48.672;9.376;2023-01-19T07:18:04;3.37;;;2.73;;
13311;SDS011;34033;48.672;9.376;2023-01-19T07:20:32;3.60;;;2.57;;
13311;SDS011;34033;48.672;9.376;2023-01-19T07:22:58;4.10;;;3.10;;
13311;SDS011;34033;48.672;9.376;2023-01-19T07:25:23;3.93;;;2.80;;
13311;SDS011;34033;48.672;9.376;2023-01-19T07:27:49;3.77;;;2.77;;
13311;SDS011;34033;48.672;9.376;2023-01-19T07:30:14;3.93;;;3.17;;
13311;SDS011;34033;48.672;9.376;2023-01-19T07:32:40;3.77;;;3.00;;
13311;SDS011;34033;48.672;9.376;2023-01-19T07:35:06;4.20;;;3.00;;
13311;SDS011;34033;48.672;9.376;2023-01-19T07:37:33;3.70;;;2.80;;
13311;SDS011;34033;48.672;9.376;2023-01-19T07:39:58;3.47;;;2.67;;
13311;SDS011;34033;48.672;9.376;2023-01-19T07:42:23;3.13;;;2.70;;
13311;SDS011;34033;48.672;9.376;2023-01-19T07:44:49;4.03;;;3.23;;
13311;SDS011;34033;48.672;9.376;2023-01-19T07:47:14;4.73;;;3.30;;
13311;SDS011;34033;48.672;9.376;2023-01-19T07:49:39;5.70;;;3.10;;
13311;SDS011;34033;48.672;9.376;2023-01-19T07:52:05;3.93;;;3.10;;
13311;SDS011;34033;48.672;9.376;2023-01-19T07:54:31;5.30;;;3.03;;
13311;SDS011;34033;48.672;9.376;2023-01-19T07:56:56;4.33;;;3.20;;
13311;SDS011;34033;48.672;9.376;2023-01-19T07:59:21;3.87;;;2.70;;
13311;SDS011;34033;48.672;9.376;2023-01-19T08:01:46;3.50;;;2.73;;
13311;SDS011;34033;48.672;9.376;2023-01-19T08:04:12;4.03;;;3.03;;
13311;SDS011;34033;48.672;9.376;2023-01-19T08:06:37;4.40;;;3.00;;
13311;SDS011;34033;48.672;9.376;2023-01-19T08:09:04;6.60;;;3.47;;
13311;SDS011;34033;48.672;9.376;2023-01-19T08:11:30;3.77;;;2.93;;
13311;SDS011;34033;48.672;9.376;2023-01-19T08:13:56;4.43;;;2.90;;
13311;SDS011;34033;48.672;9.376;2023-01-19T08:16:22;3.43;;;2.77;;
13311;SDS011;34033;48.672;9.376;2023-01-19T08:18:47;4.33;;;2.90;;
13311;SDS011;34033;48.672;9.376;2023-01-19T08:21:13;4.70;;;2.83;;
13311;SDS011;34033;48.672;9.376;2023-01-19T08:23:38;4.37;;;2.93;;
13311;SDS011;34033;48.672;9.376;2023-01-19T08:26:17;3.93;;;2.93;;
13311;SDS011;34033;48.672;9.376;2023-01-19T08:28:51;4.33;;;3.00;;
13311;SDS011;34033;48.672;9.376;2023-01-19T08:31:17;3.07;;;2.77;;
13311;SDS011;34033;48.672;9.376;2023-01-19T08:33:42;3.00;;;2.70;;
13311;SDS011;34033;48.672;9.376;2023-01-19T08:36:08;2.97;;;2.60;;
13311;SDS011;34033;48.672;9.376;2023-01-19T08:38:33;3.77;;;2.70;;
13311;SDS011;34033;48.672;9.376;2023-01-19T08:40:58;2.83;;;2.40;;
13311;SDS011;34033;48.672;9.376;2023-01-19T08:43:24;3.60;;;2.63;;
13311;SDS011;34033;48.672;9.376;2023-01-19T08:45:50;4.33;;;2.83;;
13311;SDS011;34033;48.672;9.376;2023-01-19T08:48:17;5.00;;;3.10;;
13311;SDS011;34033;48.672;9.376;2023-01-19T08:50:46;3.00;;;2.70;;
13311;SDS011;34033;48.672;9.376;2023-01-19T08:53:12;3.50;;;2.67;;
13311;SDS011;34033;48.672;9.376;2023-01-19T08:55:39;3.43;;;2.63;;
13311;SDS011;34033;48.672;9.376;2023-01-19T08:58:05;3.03;;;2.73;;
13311;SDS011;34033;48.672;9.376;2023-01-19T09:00:33;2.80;;;2.60;;
13311;SDS011;34033;48.672;9.376;2023-01-19T09:03:01;2.93;;;2.47;;
13311;SDS011;34033;48.672;9.376;2023-01-19T09:05:28;3.47;;;2.67;;
13311;SDS011;34033;48.672;9.376;2023-01-19T09:07:55;2.70;;;2.50;;
13311;SDS011;34033;48.672;9.376;2023-01-19T09:10:21;3.33;;;2.60;;
13311;SDS011;34033;48.672;9.376;2023-01-19T09:12:46;4.07;;;2.77;;
13311;SDS011;34033;48.672;9.376;2023-01-19T09:15:12;2.77;;;2.57;;
13311;SDS011;34033;48.672;9.376;2023-01-19T09:17:40;3.37;;;2.83;;
13311;SDS011;34033;48.672;9.376;2023-01-19T09:20:06;3.03;;;2.73;;
13311;SDS011;34033;48.672;9.376;2023-01-19T09:22:32;3.50;;;3.10;;
13311;SDS011;34033;48.672;9.376;2023-01-19T09:24:58;4.20;;;2.70;;
13311;SDS011;34033;48.672;9.376;2023-01-19T09:27:24;4.07;;;3.13;;
13311;SDS011;34033;48.672;9.376;2023-01-19T09:29:49;5.13;;;2.80;;
13311;SDS011;34033;48.672;9.376;2023-01-19T09:32:18;4.40;;;2.67;;
13311;SDS011;34033;48.672;9.376;2023-01-19T09:34:44;3.57;;;2.77;;
13311;SDS011;34033;48.672;9.376;2023-01-19T09:37:10;3.33;;;2.70;;
13311;SDS011;34033;48.672;9.376;2023-01-19T09:39:35;7.07;;;3.10;;
13311;SDS011;34033;48.672;9.376;2023-01-19T09:42:22;4.37;;;2.80;;
13311;SDS011;34033;48.672;9.376;2023-01-19T09:44:46;2.80;;;2.53;;
13311;SDS011;34033;48.672;9.376;2023-01-19T09:47:15;5.40;;;2.70;;
13311;SDS011;34033;48.672;9.376;2023-01-19T09:49:58;3.03;;;2.40;;
13311;SDS011;34033;48.672;9.376;2023-01-19T09:52:29;2.50;;;1.97;;
13311;SDS011;34033;48.672;9.376;2023-01-19T09:54:58;2.50;;;2.30;;
13311;SDS011;34033;48.672;9.376;2023-01-19T09:57:24;12.07;;;2.53;;
13311;SDS011;34033;48.672;9.376;2023-01-19T09:59:51;3.87;;;3.10;;
13311;SDS011;34033;48.672;9.376;2023-01-19T10:10:35;2.90;;;2.60;;
13311;SDS011;34033;48.672;9.376;2023-01-19T10:13:04;2.20;;;2.10;;
13311;SDS011;34033;48.672;9.376;2023-01-19T10:20:50;2.87;;;2.40;;
13311;SDS011;34033;48.672;9.376;2023-01-19T10:23:43;2.23;;;2.10;;
13311;SDS011;34033;48.672;9.376;2023-01-19T10:26:39;2.73;;;2.43;;
13311;SDS011;34033;48.672;9.376;2023-01-19T10:31:46;2.60;;;2.40;;
13311;SDS011;34033;48.672;9.376;2023-01-19T10:34:15;3.07;;;2.60;;
13311;SDS011;34033;48.672;9.376;2023-01-19T10:36:44;4.70;;;2.70;;
13311;SDS011;34033;48.672;9.376;2023-01-19T10:39:14;3.17;;;2.10;;
13311;SDS011;34033;48.672;9.376;2023-01-19T10:41:50;2.53;;;2.20;;
13311;SDS011;34033;48.672;9.376;2023-01-19T10:44:24;2.77;;;2.33;;
13311;SDS011;34033;48.672;9.376;2023-01-19T10:46:51;2.77;;;2.47;;
13311;SDS011;34033;48.672;9.376;2023-01-19T10:49:38;2.97;;;2.47;;
13311;SDS011;34033;48.672;9.376;2023-01-19T10:52:07;3.37;;;2.30;;
13311;SDS011;34033;48.672;9.376;2023-01-19T10:54:43;2.50;;;2.30;;
13311;SDS011;34033;48.672;9.376;2023-01-19T10:57:08;2.50;;;2.30;;
13311;SDS011;34033;48.672;9.376;2023-01-19T11:04:48;3.17;;;2.23;;
13311;SDS011;34033;48.672;9.376;2023-01-19T11:09:44;3.00;;;2.33;;
13311;SDS011;34033;48.672;9.376;2023-01-19T11:12:19;3.37;;;2.60;;
13311;SDS011;34033;48.672;9.376;2023-01-19T11:14:48;3.20;;;2.50;;
13311;SDS011;34033;48.672;9.376;2023-01-19T11:17:18;3.50;;;2.40;;
13311;SDS011;34033;48.672;9.376;2023-01-19T11:19:55;3.03;;;2.53;;
13311;SDS011;34033;48.672;9.376;2023-01-19T11:22:27;3.63;;;2.57;;
13311;SDS011;34033;48.672;9.376;2023-01-19T11:25:02;3.80;;;2.40;;
13311;SDS011;34033;48.672;9.376;2023-01-19T11:27:28;5.43;;;2.43;;
13311;SDS011;34033;48.672;9.376;2023-01-19T11:30:17;2.90;;;2.50;;
13311;SDS011;34033;48.672;9.376;2023-01-19T11:32:46;2.50;;;2.30;;
13311;SDS011;34033;48.672;9.376;2023-01-19T11:38:19;3.03;;;2.30;;
13311;SDS011;34033;48.672;9.376;2023-01-19T11:40:51;2.23;;;2.03;;
13311;SDS011;34033;48.672;9.376;2023-01-19T11:43:19;2.93;;;2.53;;
13311;SDS011;34033;48.672;9.376;2023-01-19T11:45:46;2.53;;;1.80;;
13311;SDS011;34033;48.672;9.376;2023-01-19T11:48:15;2.57;;;2.20;;
13311;SDS011;34033;48.672;9.376;2023-01-19T11:50:47;2.40;;;2.20;;
13311;SDS011;34033;48.672;9.376;2023-01-19T11:53:20;2.00;;;1.90;;
13311;SDS011;34033;48.672;9.376;2023-01-19T11:58:22;3.23;;;2.30;;
13311;SDS011;34033;48.672;9.376;2023-01-19T12:03:32;4.33;;;2.20;;
13311;SDS011;34033;48.672;9.376;2023-01-19T12:06:09;3.33;;;2.30;;
13311;SDS011;34033;48.672;9.376;2023-01-19T12:08:40;2.27;;;1.87;;
13311;SDS011;34033;48.672;9.376;2023-01-19T12:11:10;3.10;;;1.90;;
13311;SDS011;34033;48.672;9.376;2023-01-19T12:13:40;1.50;;;1.40;;
13311;SDS011;34033;48.672;9.376;2023-01-19T12:18:42;2.17;;;1.60;;
13311;SDS011;34033;48.672;9.376;2023-01-19T12:21:12;1.70;;;1.60;;
13311;SDS011;34033;48.672;9.376;2023-01-19T12:23:42;2.17;;;1.60;;
13311;SDS011;34033;48.672;9.376;2023-01-19T12:28:49;1.93;;;1.73;;
13311;SDS011;34033;48.672;9.376;2023-01-19T12:31:16;2.50;;;1.80;;
13311;SDS011;34033;48.672;9.376;2023-01-19T12:33:43;2.90;;;2.00;;
13311;SDS011;34033;48.672;9.376;2023-01-19T12:38:56;3.57;;;2.20;;
13311;SDS011;34033;48.672;9.376;2023-01-19T12:41:32;2.10;;;1.90;;
13311;SDS011;34033;48.672;9.376;2023-01-19T12:46:34;2.93;;;2.43;;
13311;SDS011;34033;48.672;9.376;2023-01-19T12:54:48;2.40;;;2.20;;
13311;SDS011;34033;48.672;9.376;2023-01-19T12:57:37;2.30;;;2.10;;
13311;SDS011;34033;48.672;9.376;2023-01-19T13:00:06;2.03;;;1.90;;
13311;SDS011;34033;48.672;9.376;2023-01-19T13:02:53;1.97;;;1.77;;
13311;SDS011;34033;48.672;9.376;2023-01-19T13:10:54;3.00;;;2.23;;
13311;SDS011;34033;48.672;9.376;2023-01-19T13:13:24;2.17;;;1.97;;
13311;SDS011;34033;48.672;9.376;2023-01-19T13:15:50;2.90;;;2.00;;
13311;SDS011;34033;48.672;9.376;2023-01-19T13:18:19;6.60;;;2.23;;
13311;SDS011;34033;48.672;9.376;2023-01-19T13:20:53;2.60;;;1.97;;
13311;SDS011;34033;48.672;9.376;2023-01-19T13:26:12;2.00;;;1.90;;
13311;SDS011;34033;48.672;9.376;2023-01-19T13:28:40;3.27;;;1.93;;
13311;SDS011;34033;48.672;9.376;2023-01-19T13:31:07;3.77;;;2.57;;
13311;SDS011;34033;48.672;9.376;2023-01-19T13:33:53;3.00;;;2.50;;
13311;SDS011;34033;48.672;9.376;2023-01-19T13:38:52;2.47;;;2.27;;
13311;SDS011;34033;48.672;9.376;2023-01-19T13:41:20;3.07;;;2.30;;
13311;SDS011;34033;48.672;9.376;2023-01-19T13:43:50;2.40;;;2.20;;
13311;SDS011;34033;48.672;9.376;2023-01-19T13:46:22;4.80;;;1.97;;
13311;SDS011;34033;48.672;9.376;2023-01-19T13:48:53;3.67;;;2.70;;
13311;SDS011;34033;48.672;9.376;2023-01-19T13:51:21;4.70;;;2.40;;
13311;SDS011;34033;48.672;9.376;2023-01-19T13:53:57;3.13;;;2.43;;
13311;SDS011;34033;48.672;9.376;2023-01-19T13:56:25;5.23;;;2.57;;
13311;SDS011;34033;48.672;9.376;2023-01-19T13:58:56;2.93;;;2.43;;
13311;SDS011;34033;48.672;9.376;2023-01-19T14:01:27;2.50;;;2.30;;
13311;SDS011;34033;48.672;9.376;2023-01-19T14:03:55;2.03;;;1.83;;
13311;SDS011;34033;48.672;9.376;2023-01-19T14:06:31;2.13;;;1.93;;
13311;SDS011;34033;48.672;9.376;2023-01-19T14:09:07;2.20;;;2.00;;
13311;SDS011;34033;48.672;9.376;2023-01-19T14:11:38;2.27;;;1.97;;
13311;SDS011;34033;48.672;9.376;2023-01-19T14:14:03;5.67;;;2.00;;
13311;SDS011;34033;48.672;9.376;2023-01-19T14:16:29;3.27;;;1.73;;
13311;SDS011;34033;48.672;9.376;2023-01-19T14:18:58;1.90;;;1.80;;
13311;SDS011;34033;48.672;9.376;2023-01-19T14:21:35;2.13;;;2.03;;
13311;SDS011;34033;48.672;9.376;2023-01-19T14:24:35;2.10;;;1.90;;
13311;SDS011;34033;48.672;9.376;2023-01-19T14:29:43;2.17;;;1.90;;
13311;SDS011;34033;48.672;9.376;2023-01-19T14:32:14;2.83;;;2.27;;
13311;SDS011;34033;48.672;9.376;2023-01-19T14:34:51;2.10;;;1.83;;
13311;SDS011;34033;48.672;9.376;2023-01-19T14:37:36;2.47;;;2.00;;
13311;SDS011;34033;48.672;9.376;2023-01-19T14:47:44;2.80;;;2.47;;
13311;SDS011;34033;48.672;9.376;2023-01-19T14:55:25;4.03;;;2.90;;
13311;SDS011;34033;48.672;9.376;2023-01-19T14:57:57;3.40;;;2.47;;
13311;SDS011;34033;48.672;9.376;2023-01-19T15:00:22;8.20;;;2.83;;
13311;SDS011;34033;48.672;9.376;2023-01-19T15:02:48;4.87;;;2.53;;
13311;SDS011;34033;48.672;9.376;2023-01-19T15:05:14;6.63;;;2.80;;
13311;SDS011;34033;48.672;9.376;2023-01-19T15:07:40;3.83;;;2.77;;
13311;SDS011;34033;48.672;9.376;2023-01-19T15:10:15;3.03;;;2.60;;
13311;SDS011;34033;48.672;9.376;2023-01-19T15:12:44;2.90;;;2.33;;
13311;SDS011;34033;48.672;9.376;2023-01-19T15:15:25;4.27;;;2.63;;
13311;SDS011;34033;48.672;9.376;2023-01-19T15:17:54;5.10;;;2.37;;
13311;SDS011;34033;48.672;9.376;2023-01-19T15:20:20;2.47;;;2.27;;
13311;SDS011;34033;48.672;9.376;2023-01-19T15:22:46;2.73;;;2.53;;
13311;SDS011;34033;48.672;9.376;2023-01-19T15:25:13;2.73;;;2.27;;
13311;SDS011;34033;48.672;9.376;2023-01-19T15:27:39;2.40;;;2.07;;
13311;SDS011;34033;48.672;9.376;2023-01-19T15:30:12;2.80;;;2.27;;
13311;SDS011;34033;48.672;9.376;2023-01-19T15:32:40;2.43;;;2.23;;
13311;SDS011;34033;48.672;9.376;2023-01-19T15:35:17;2.90;;;2.70;;
13311;SDS011;34033;48.672;9.376;2023-01-19T15:37:44;2.93;;;2.67;;
13311;SDS011;34033;48.672;9.376;2023-01-19T15:40:10;4.07;;;3.07;;
13311;SDS011;34033;48.672;9.376;2023-01-19T15:42:36;3.43;;;2.93;;
13311;SDS011;34033;48.672;9.376;2023-01-19T15:45:02;2.60;;;2.40;;
13311;SDS011;34033;48.672;9.376;2023-01-19T15:47:47;5.53;;;3.00;;
13311;SDS011;34033;48.672;9.376;2023-01-19T15:50:13;9.27;;;4.73;;
13311;SDS011;34033;48.672;9.376;2023-01-19T15:52:38;10.63;;;4.93;;
13311;SDS011;34033;48.672;9.376;2023-01-19T15:55:03;11.70;;;4.73;;
13311;SDS011;34033;48.672;9.376;2023-01-19T15:57:29;8.13;;;4.67;;
13311;SDS011;34033;48.672;9.376;2023-01-19T15:59:54;4.70;;;3.90;;
13311;SDS011;34033;48.672;9.376;2023-01-19T16:02:20;7.60;;;4.43;;
13311;SDS011;34033;48.672;9.376;2023-01-19T16:04:48;5.53;;;3.90;;
13311;SDS011;34033;48.672;9.376;2023-01-19T16:07:13;7.97;;;4.00;;
13311;SDS011;34033;48.672;9.376;2023-01-19T16:09:39;5.03;;;3.93;;
13311;SDS011;34033;48.672;9.376;2023-01-19T16:12:04;7.80;;;3.97;;
13311;SDS011;34033;48.672;9.376;2023-01-19T16:14:29;5.40;;;3.70;;
13311;SDS011;34033;48.672;9.376;2023-01-19T16:16:55;5.43;;;3.57;;
13311;SDS011;34033;48.672;9.376;2023-01-19T16:19:23;4.90;;;3.90;;
13311;SDS011;34033;48.672;9.376;2023-01-19T16:21:49;4.67;;;3.77;;
13311;SDS011;34033;48.672;9.376;2023-01-19T16:24:14;5.53;;;3.70;;
13311;SDS011;34033;48.672;9.376;2023-01-19T16:26:40;5.73;;;4.03;;
13311;SDS011;34033;48.672;9.376;2023-01-19T16:29:06;11.37;;;5.80;;
13311;SDS011;34033;48.672;9.376;2023-01-19T16:31:33;10.83;;;6.27;;
13311;SDS011;34033;48.672;9.376;2023-01-19T16:34:00;9.00;;;5.70;;